ESST/TYF METAR and TAF weather

Enter ICAO airport designator
Station Type Date Time Source
ESST METAR 2019/05/26 23:20 UTC NOAA

ESST 262320Z AUTO VRB02KT 9999 ///////// 04/02 Q1000


Station Type Date Time Source
ESST Decoded METAR 2019/05/26 23:20 UTC NOAA

Station name not available
May 26, 2019 - 07:20 PM EDT / 2019.05.26 2320 UTC
Wind: Variable at 2 MPH (2 KT):0
Visibility: greater than 7 mile(s):0
Temperature: 39 F (4 C)
Dew Point: 35 F (2 C)
Relative Humidity: 86%
Pressure (altimeter): 29.53 in. Hg (1000 hPa)
ob: ESST 262320Z AUTO VRB02KT 9999 ///////// 04/02 Q1000
cycle: 23

Station Type Date Time Source
ESST TAF UTC NOAA

Error!

Example: see airport list